sensor_id;sensor_type;location;lat;lon;timestamp;pressure;altitude;pressure_sealevel;temperature;humidity
8573;BME280;4324;42.012;24.872;2023-07-28T00:01:13;98850.34;;;22.66;35.58
8573;BME280;4324;42.012;24.872;2023-07-28T00:03:40;98808.38;;;22.36;35.45
8573;BME280;4324;42.012;24.872;2023-07-28T00:06:08;98810.06;;;22.42;35.78
8573;BME280;4324;42.012;24.872;2023-07-28T00:08:36;98863.00;;;22.65;36.16
8573;BME280;4324;42.012;24.872;2023-07-28T00:11:03;98820.53;;;22.39;35.88
8573;BME280;4324;42.012;24.872;2023-07-28T00:13:30;98858.94;;;22.63;35.98
8573;BME280;4324;42.012;24.872;2023-07-28T00:15:57;98829.22;;;22.41;35.96
8573;BME280;4324;42.012;24.872;2023-07-28T00:18:24;98794.41;;;22.22;35.91
8573;BME280;4324;42.012;24.872;2023-07-28T00:20:51;98783.91;;;22.09;35.60
8573;BME280;4324;42.012;24.872;2023-07-28T00:23:19;98773.06;;;22.04;35.61
8573;BME280;4324;42.012;24.872;2023-07-28T00:25:47;98781.81;;;22.11;35.72
8573;BME280;4324;42.012;24.872;2023-07-28T00:28:14;98746.34;;;21.86;35.69
8573;BME280;4324;42.012;24.872;2023-07-28T00:30:41;98769.06;;;21.90;36.08
8573;BME280;4324;42.012;24.872;2023-07-28T00:33:08;98825.69;;;22.23;35.84
8573;BME280;4324;42.012;24.872;2023-07-28T00:35:35;98800.09;;;22.09;36.07
8573;BME280;4324;42.012;24.872;2023-07-28T00:38:02;98759.91;;;21.91;35.50
8573;BME280;4324;42.012;24.872;2023-07-28T00:40:30;98858.19;;;22.51;35.72
8573;BME280;4324;42.012;24.872;2023-07-28T00:42:58;98791.44;;;22.07;35.99
8573;BME280;4324;42.012;24.872;2023-07-28T00:45:25;98815.50;;;22.26;36.24
8573;BME280;4324;42.012;24.872;2023-07-28T00:47:52;98810.25;;;22.19;36.20
8573;BME280;4324;42.012;24.872;2023-07-28T00:50:19;98759.25;;;21.84;36.32
8573;BME280;4324;42.012;24.872;2023-07-28T00:52:46;98820.22;;;22.18;36.25
8573;BME280;4324;42.012;24.872;2023-07-28T00:55:15;98856.66;;;22.38;36.60
8573;BME280;4324;42.012;24.872;2023-07-28T00:57:44;98812.69;;;22.20;36.38
8573;BME280;4324;42.012;24.872;2023-07-28T01:00:11;98814.34;;;22.21;36.53
8573;BME280;4324;42.012;24.872;2023-07-28T01:02:39;98802.56;;;22.11;36.38
8573;BME280;4324;42.012;24.872;2023-07-28T01:05:06;98848.00;;;22.36;36.32
8573;BME280;4324;42.012;24.872;2023-07-28T01:07:38;98830.59;;;22.27;36.41
8573;BME280;4324;42.012;24.872;2023-07-28T01:10:14;98852.66;;;22.40;36.40
8573;BME280;4324;42.012;24.872;2023-07-28T01:12:45;98824.41;;;22.26;36.58
8573;BME280;4324;42.012;24.872;2023-07-28T01:15:12;98761.72;;;21.85;36.65
8573;BME280;4324;42.012;24.872;2023-07-28T01:17:41;98842.59;;;22.36;36.74
8573;BME280;4324;42.012;24.872;2023-07-28T01:20:08;98842.09;;;22.39;36.56
8573;BME280;4324;42.012;24.872;2023-07-28T01:22:56;98769.13;;;21.95;36.92
8573;BME280;4324;42.012;24.872;2023-07-28T01:25:39;98830.03;;;22.25;36.92
8573;BME280;4324;42.012;24.872;2023-07-28T01:28:12;98835.25;;;22.31;37.18
8573;BME280;4324;42.012;24.872;2023-07-28T01:30:40;98765.81;;;21.88;37.15
8573;BME280;4324;42.012;24.872;2023-07-28T01:33:09;98855.59;;;22.39;37.15
8573;BME280;4324;42.012;24.872;2023-07-28T01:35:37;98785.97;;;22.02;37.31
8573;BME280;4324;42.012;24.872;2023-07-28T01:38:04;98785.41;;;22.00;37.26
8573;BME280;4324;42.012;24.872;2023-07-28T01:40:32;98816.94;;;22.16;37.51
8573;BME280;4324;42.012;24.872;2023-07-28T01:42:59;98850.13;;;22.34;37.50
8573;BME280;4324;42.012;24.872;2023-07-28T01:45:27;98849.22;;;22.28;37.62
8573;BME280;4324;42.012;24.872;2023-07-28T01:47:54;98811.63;;;22.05;37.56
8573;BME280;4324;42.012;24.872;2023-07-28T01:50:21;98844.91;;;22.27;37.63
8573;BME280;4324;42.012;24.872;2023-07-28T01:52:49;98809.41;;;22.02;37.65
8573;BME280;4324;42.012;24.872;2023-07-28T01:55:16;98836.41;;;22.18;37.76
8573;BME280;4324;42.012;24.872;2023-07-28T01:57:50;98788.00;;;21.78;37.79
8573;BME280;4324;42.012;24.872;2023-07-28T02:00:18;98852.88;;;22.05;37.87
8573;BME280;4324;42.012;24.872;2023-07-28T02:02:48;98797.03;;;21.55;38.13
8573;BME280;4324;42.012;24.872;2023-07-28T02:05:15;98807.53;;;21.40;38.66
8573;BME280;4324;42.012;24.872;2023-07-28T02:07:42;98829.56;;;21.37;39.20
8573;BME280;4324;42.012;24.872;2023-07-28T02:10:09;98772.19;;;20.96;39.37
8573;BME280;4324;42.012;24.872;2023-07-28T02:12:37;98813.44;;;21.13;39.52
8573;BME280;4324;42.012;24.872;2023-07-28T02:15:05;98777.97;;;20.88;39.53
8573;BME280;4324;42.012;24.872;2023-07-28T02:17:32;98833.56;;;21.22;39.83
8573;BME280;4324;42.012;24.872;2023-07-28T02:20:01;98778.22;;;20.74;40.00
8573;BME280;4324;42.012;24.872;2023-07-28T02:22:29;98850.22;;;21.08;40.06
8573;BME280;4324;42.012;24.872;2023-07-28T02:24:56;98823.59;;;20.83;40.27
8573;BME280;4324;42.012;24.872;2023-07-28T02:27:26;98859.38;;;20.95;40.60
8573;BME280;4324;42.012;24.872;2023-07-28T02:29:53;98837.28;;;20.81;40.81
8573;BME280;4324;42.012;24.872;2023-07-28T02:32:20;98789.84;;;20.51;40.73
8573;BME280;4324;42.012;24.872;2023-07-28T02:34:50;98860.78;;;20.97;40.75
8573;BME280;4324;42.012;24.872;2023-07-28T02:37:19;98800.94;;;20.55;40.73
8573;BME280;4324;42.012;24.872;2023-07-28T02:39:46;98793.44;;;20.57;40.79
8573;BME280;4324;42.012;24.872;2023-07-28T02:42:13;98821.19;;;20.69;40.76
8573;BME280;4324;42.012;24.872;2023-07-28T02:44:40;98802.94;;;20.60;40.49
8573;BME280;4324;42.012;24.872;2023-07-28T02:47:08;98800.47;;;20.58;40.77
8573;BME280;4324;42.012;24.872;2023-07-28T02:49:35;98775.31;;;20.41;40.88
8573;BME280;4324;42.012;24.872;2023-07-28T02:52:02;98759.88;;;20.24;40.80
8573;BME280;4324;42.012;24.872;2023-07-28T02:54:31;98831.69;;;20.59;40.92
8573;BME280;4324;42.012;24.872;2023-07-28T02:56:58;98826.44;;;20.52;40.89
8573;BME280;4324;42.012;24.872;2023-07-28T02:59:26;98843.72;;;20.45;40.99
8573;BME280;4324;42.012;24.872;2023-07-28T03:01:53;98786.75;;;20.01;41.16
8573;BME280;4324;42.012;24.872;2023-07-28T03:04:23;98779.50;;;19.90;41.23
8573;BME280;4324;42.012;24.872;2023-07-28T03:06:50;98834.22;;;20.07;41.58
8573;BME280;4324;42.012;24.872;2023-07-28T03:09:17;98838.53;;;19.96;41.74
8573;BME280;4324;42.012;24.872;2023-07-28T03:11:45;98845.63;;;19.91;42.10
8573;BME280;4324;42.012;24.872;2023-07-28T03:14:13;98818.59;;;19.62;42.18
8573;BME280;4324;42.012;24.872;2023-07-28T03:16:40;98827.28;;;19.57;42.22
8573;BME280;4324;42.012;24.872;2023-07-28T03:19:10;98891.47;;;19.96;42.51
8573;BME280;4324;42.012;24.872;2023-07-28T03:21:38;98803.53;;;19.43;42.40
8573;BME280;4324;42.012;24.872;2023-07-28T03:24:05;98837.56;;;19.61;42.26
8573;BME280;4324;42.012;24.872;2023-07-28T03:26:33;98799.78;;;19.32;42.52
8573;BME280;4324;42.012;24.872;2023-07-28T03:29:01;98803.72;;;19.29;42.70
8573;BME280;4324;42.012;24.872;2023-07-28T03:31:28;98914.19;;;19.81;42.84
8573;BME280;4324;42.012;24.872;2023-07-28T03:33:55;98861.97;;;19.59;42.95
8573;BME280;4324;42.012;24.872;2023-07-28T03:36:23;98868.97;;;19.60;42.73
8573;BME280;4324;42.012;24.872;2023-07-28T03:38:50;98880.53;;;19.61;42.85
8573;BME280;4324;42.012;24.872;2023-07-28T03:41:17;98874.34;;;19.60;42.89
8573;BME280;4324;42.012;24.872;2023-07-28T03:43:44;98793.16;;;19.16;43.01
8573;BME280;4324;42.012;24.872;2023-07-28T03:46:13;98883.47;;;19.77;42.99
8573;BME280;4324;42.012;24.872;2023-07-28T03:48:40;98851.41;;;19.64;43.04
8573;BME280;4324;42.012;24.872;2023-07-28T03:51:07;98887.19;;;19.76;43.01
8573;BME280;4324;42.012;24.872;2023-07-28T03:53:34;98862.44;;;19.56;43.15
8573;BME280;4324;42.012;24.872;2023-07-28T03:56:02;98880.41;;;19.74;43.03
8573;BME280;4324;42.012;24.872;2023-07-28T03:58:29;98888.84;;;19.77;42.99
8573;BME280;4324;42.012;24.872;2023-07-28T04:00:56;98857.44;;;19.59;43.05
8573;BME280;4324;42.012;24.872;2023-07-28T04:03:25;98880.50;;;19.67;43.07
8573;BME280;4324;42.012;24.872;2023-07-28T04:05:52;98890.34;;;19.73;43.22
8573;BME280;4324;42.012;24.872;2023-07-28T04:08:19;98924.06;;;19.99;43.10
8573;BME280;4324;42.012;24.872;2023-07-28T04:10:46;98927.56;;;20.00;43.23
8573;BME280;4324;42.012;24.872;2023-07-28T04:13:14;98925.38;;;20.09;43.14
8573;BME280;4324;42.012;24.872;2023-07-28T04:15:43;98895.06;;;19.90;43.02
8573;BME280;4324;42.012;24.872;2023-07-28T04:18:13;98929.59;;;20.16;42.94
8573;BME280;4324;42.012;24.872;2023-07-28T04:20:45;98924.00;;;20.18;42.88
8573;BME280;4324;42.012;24.872;2023-07-28T04:23:12;98929.25;;;20.24;42.68
8573;BME280;4324;42.012;24.872;2023-07-28T04:25:39;98836.59;;;19.73;42.69
8573;BME280;4324;42.012;24.872;2023-07-28T04:28:06;98871.59;;;19.97;42.52
8573;BME280;4324;42.012;24.872;2023-07-28T04:30:38;98936.44;;;20.42;42.24
8573;BME280;4324;42.012;24.872;2023-07-28T04:33:14;98904.03;;;20.25;42.30
8573;BME280;4324;42.012;24.872;2023-07-28T04:35:43;98882.63;;;20.19;42.24
8573;BME280;4324;42.012;24.872;2023-07-28T04:38:14;98904.03;;;20.37;42.29
8573;BME280;4324;42.012;24.872;2023-07-28T04:40:42;98896.06;;;20.30;42.14
8573;BME280;4324;42.012;24.872;2023-07-28T04:43:10;98876.53;;;20.23;42.31
8573;BME280;4324;42.012;24.872;2023-07-28T04:45:37;98904.97;;;20.43;42.16
8573;BME280;4324;42.012;24.872;2023-07-28T04:48:05;98922.56;;;20.57;42.22
8573;BME280;4324;42.012;24.872;2023-07-28T04:50:32;98924.09;;;20.65;41.92
8573;BME280;4324;42.012;24.872;2023-07-28T04:52:59;98844.88;;;20.25;41.81
8573;BME280;4324;42.012;24.872;2023-07-28T04:55:31;98895.31;;;20.65;41.77
8573;BME280;4324;42.012;24.872;2023-07-28T04:58:01;98928.91;;;20.86;41.68
8573;BME280;4324;42.012;24.872;2023-07-28T05:00:28;98945.03;;;20.98;41.65
8573;BME280;4324;42.012;24.872;2023-07-28T05:02:55;98887.25;;;20.65;41.45
8573;BME280;4324;42.012;24.872;2023-07-28T05:05:23;98881.41;;;20.68;41.71
8573;BME280;4324;42.012;24.872;2023-07-28T05:07:50;98867.84;;;20.63;41.47
8573;BME280;4324;42.012;24.872;2023-07-28T05:10:17;98945.03;;;21.21;41.48
8573;BME280;4324;42.012;24.872;2023-07-28T05:12:45;98892.63;;;20.89;41.43
8573;BME280;4324;42.012;24.872;2023-07-28T05:15:19;98951.69;;;21.31;41.39
8573;BME280;4324;42.012;24.872;2023-07-28T05:17:47;98920.44;;;21.18;41.29
8573;BME280;4324;42.012;24.872;2023-07-28T05:20:17;98900.66;;;21.12;41.24
8573;BME280;4324;42.012;24.872;2023-07-28T05:22:44;98918.91;;;21.34;41.05
8573;BME280;4324;42.012;24.872;2023-07-28T05:25:16;98923.13;;;21.41;40.75
8573;BME280;4324;42.012;24.872;2023-07-28T05:27:46;98892.34;;;21.25;40.49
8573;BME280;4324;42.012;24.872;2023-07-28T05:30:17;98929.75;;;21.62;40.44
8573;BME280;4324;42.012;24.872;2023-07-28T05:33:01;98963.41;;;21.88;40.33
8573;BME280;4324;42.012;24.872;2023-07-28T05:35:28;98878.38;;;21.40;40.03
8573;BME280;4324;42.012;24.872;2023-07-28T05:37:55;98926.84;;;21.81;40.05
8573;BME280;4324;42.012;24.872;2023-07-28T05:40:22;98978.19;;;22.14;39.91
8573;BME280;4324;42.012;24.872;2023-07-28T05:42:54;98984.81;;;22.23;39.73
8573;BME280;4324;42.012;24.872;2023-07-28T05:45:22;98973.06;;;22.30;40.02
8573;BME280;4324;42.012;24.872;2023-07-28T05:47:49;98885.03;;;21.78;39.54
8573;BME280;4324;42.012;24.872;2023-07-28T05:50:16;98875.59;;;21.92;39.46
8573;BME280;4324;42.012;24.872;2023-07-28T05:52:43;98938.19;;;22.40;39.13
8573;BME280;4324;42.012;24.872;2023-07-28T05:55:10;98946.03;;;22.58;38.88
8573;BME280;4324;42.012;24.872;2023-07-28T05:57:37;98928.44;;;22.56;38.86
8573;BME280;4324;42.012;24.872;2023-07-28T06:00:07;98940.69;;;22.80;38.39
8573;BME280;4324;42.012;24.872;2023-07-28T06:02:37;98938.41;;;22.89;38.36
8573;BME280;4324;42.012;24.872;2023-07-28T06:05:05;98926.41;;;22.97;37.86
8573;BME280;4324;42.012;24.872;2023-07-28T06:07:32;98942.06;;;23.16;37.80
8573;BME280;4324;42.012;24.872;2023-07-28T06:09:59;98927.56;;;23.23;37.55
8573;BME280;4324;42.012;24.872;2023-07-28T06:12:27;98975.75;;;23.70;37.48
8573;BME280;4324;42.012;24.872;2023-07-28T06:14:54;98938.88;;;23.63;37.23
8573;BME280;4324;42.012;24.872;2023-07-28T06:17:22;98958.63;;;23.86;36.74
8573;BME280;4324;42.012;24.872;2023-07-28T06:19:49;98970.47;;;24.07;36.67
8573;BME280;4324;42.012;24.872;2023-07-28T06:22:17;98973.94;;;24.29;36.05
8573;BME280;4324;42.012;24.872;2023-07-28T06:24:44;98976.81;;;24.45;36.08
8573;BME280;4324;42.012;24.872;2023-07-28T06:27:11;98965.22;;;24.49;35.77
8573;BME280;4324;42.012;24.872;2023-07-28T06:29:37;98944.13;;;24.51;35.45
8573;BME280;4324;42.012;24.872;2023-07-28T06:32:05;98961.09;;;24.74;35.07
8573;BME280;4324;42.012;24.872;2023-07-28T06:34:34;98956.28;;;24.86;35.08
8573;BME280;4324;42.012;24.872;2023-07-28T06:37:01;98950.44;;;24.99;34.96
8573;BME280;4324;42.012;24.872;2023-07-28T06:39:28;98959.19;;;25.12;35.02
8573;BME280;4324;42.012;24.872;2023-07-28T06:41:55;98938.81;;;25.09;34.87
8573;BME280;4324;42.012;24.872;2023-07-28T06:44:22;98954.66;;;25.22;35.63
8573;BME280;4324;42.012;24.872;2023-07-28T06:46:51;98951.72;;;25.34;35.33
8573;BME280;4324;42.012;24.872;2023-07-28T06:49:18;98953.41;;;25.45;35.60
8573;BME280;4324;42.012;24.872;2023-07-28T06:51:46;98946.38;;;25.54;35.19
8573;BME280;4324;42.012;24.872;2023-07-28T06:54:16;98942.63;;;25.55;35.00
8573;BME280;4324;42.012;24.872;2023-07-28T06:56:43;98930.63;;;25.41;34.61
8573;BME280;4324;42.012;24.872;2023-07-28T06:59:11;98956.69;;;25.52;34.59
8573;BME280;4324;42.012;24.872;2023-07-28T07:01:40;98950.69;;;25.45;34.50
8573;BME280;4324;42.012;24.872;2023-07-28T07:04:08;98949.56;;;25.36;34.13
8573;BME280;4324;42.012;24.872;2023-07-28T07:06:35;98911.44;;;25.05;34.39
8573;BME280;4324;42.012;24.872;2023-07-28T07:09:03;98937.53;;;25.17;34.42
8573;BME280;4324;42.012;24.872;2023-07-28T07:11:31;98940.84;;;25.24;33.86
8573;BME280;4324;42.012;24.872;2023-07-28T07:13:58;98946.31;;;25.34;33.98
8573;BME280;4324;42.012;24.872;2023-07-28T07:16:25;98935.53;;;25.44;33.69
8573;BME280;4324;42.012;24.872;2023-07-28T07:18:52;98938.25;;;25.54;33.47
8573;BME280;4324;42.012;24.872;2023-07-28T07:21:22;98935.31;;;25.61;33.69
8573;BME280;4324;42.012;24.872;2023-07-28T07:23:54;98937.78;;;25.68;33.37
8573;BME280;4324;42.012;24.872;2023-07-28T07:26:22;98928.09;;;25.87;33.56
8573;BME280;4324;42.012;24.872;2023-07-28T07:28:55;98919.69;;;25.99;33.02
8573;BME280;4324;42.012;24.872;2023-07-28T07:31:31;98938.75;;;26.14;32.77
8573;BME280;4324;42.012;24.872;2023-07-28T07:33:58;98939.53;;;26.04;33.18
8573;BME280;4324;42.012;24.872;2023-07-28T07:36:28;98902.53;;;25.73;32.73
8573;BME280;4324;42.012;24.872;2023-07-28T07:38:55;98934.59;;;25.86;33.26
8573;BME280;4324;42.012;24.872;2023-07-28T07:41:24;98933.25;;;25.89;33.21
8573;BME280;4324;42.012;24.872;2023-07-28T07:43:53;98935.97;;;25.94;32.74
8573;BME280;4324;42.012;24.872;2023-07-28T07:46:21;98935.69;;;25.95;33.02
8573;BME280;4324;42.012;24.872;2023-07-28T07:48:48;98903.41;;;25.78;32.79
8573;BME280;4324;42.012;24.872;2023-07-28T07:51:15;98931.94;;;26.12;32.49
8573;BME280;4324;42.012;24.872;2023-07-28T07:53:42;98916.50;;;26.22;32.61
8573;BME280;4324;42.012;24.872;2023-07-28T07:56:09;98931.66;;;26.44;32.35
8573;BME280;4324;42.012;24.872;2023-07-28T07:58:38;98914.06;;;26.57;32.22
8573;BME280;4324;42.012;24.872;2023-07-28T08:01:05;98915.13;;;26.76;32.15
8573;BME280;4324;42.012;24.872;2023-07-28T08:03:32;98917.00;;;26.96;31.98
8573;BME280;4324;42.012;24.872;2023-07-28T08:05:59;98896.63;;;26.83;31.74
8573;BME280;4324;42.012;24.872;2023-07-28T08:08:26;98907.50;;;26.93;31.81
8573;BME280;4324;42.012;24.872;2023-07-28T08:10:56;98924.56;;;26.99;31.76
8573;BME280;4324;42.012;24.872;2023-07-28T08:13:25;98875.25;;;26.56;31.80
8573;BME280;4324;42.012;24.872;2023-07-28T08:15:55;98921.94;;;26.68;31.81
8573;BME280;4324;42.012;24.872;2023-07-28T08:18:21;98916.78;;;26.51;32.02
8573;BME280;4324;42.012;24.872;2023-07-28T08:20:55;98885.25;;;26.35;32.11
8573;BME280;4324;42.012;24.872;2023-07-28T08:23:22;98897.22;;;26.44;31.85
8573;BME280;4324;42.012;24.872;2023-07-28T08:25:50;98893.97;;;26.58;31.84
8573;BME280;4324;42.012;24.872;2023-07-28T08:28:24;98887.41;;;26.79;31.87
8573;BME280;4324;42.012;24.872;2023-07-28T08:30:56;98893.91;;;26.88;31.49
8573;BME280;4324;42.012;24.872;2023-07-28T08:33:36;98835.28;;;26.62;31.40
8573;BME280;4324;42.012;24.872;2023-07-28T08:36:04;98892.78;;;27.15;31.30
8573;BME280;4324;42.012;24.872;2023-07-28T08:38:31;98900.34;;;27.28;31.25
8573;BME280;4324;42.012;24.872;2023-07-28T08:40:59;98888.34;;;27.29;31.23
8573;BME280;4324;42.012;24.872;2023-07-28T08:43:26;98879.69;;;27.27;31.03
8573;BME280;4324;42.012;24.872;2023-07-28T08:45:55;98874.03;;;27.18;30.77
8573;BME280;4324;42.012;24.872;2023-07-28T08:48:23;98862.34;;;27.13;30.98
8573;BME280;4324;42.012;24.872;2023-07-28T08:50:50;98836.81;;;26.98;30.76
8573;BME280;4324;42.012;24.872;2023-07-28T08:53:17;98867.47;;;27.24;30.62
8573;BME280;4324;42.012;24.872;2023-07-28T08:55:44;98870.34;;;27.43;30.28
8573;BME280;4324;42.012;24.872;2023-07-28T08:58:15;98872.44;;;27.62;30.08
8573;BME280;4324;42.012;24.872;2023-07-28T09:00:42;98870.47;;;27.72;29.69
8573;BME280;4324;42.012;24.872;2023-07-28T09:03:11;98871.28;;;27.73;29.66
8573;BME280;4324;42.012;24.872;2023-07-28T09:05:38;98786.66;;;27.40;29.60
8573;BME280;4324;42.012;24.872;2023-07-28T09:08:06;98854.19;;;28.07;29.45
8573;BME280;4324;42.012;24.872;2023-07-28T09:10:41;98855.31;;;28.40;29.03
8573;BME280;4324;42.012;24.872;2023-07-28T09:13:09;98857.44;;;28.48;28.74
8573;BME280;4324;42.012;24.872;2023-07-28T09:15:37;98851.44;;;28.46;28.41
8573;BME280;4324;42.012;24.872;2023-07-28T09:18:07;98851.44;;;28.46;28.61
8573;BME280;4324;42.012;24.872;2023-07-28T09:20:38;98827.25;;;28.44;28.29
8573;BME280;4324;42.012;24.872;2023-07-28T09:23:07;98844.41;;;28.69;28.13
8573;BME280;4324;42.012;24.872;2023-07-28T09:25:36;98827.81;;;28.65;28.08
8573;BME280;4324;42.012;24.872;2023-07-28T09:28:05;98813.66;;;28.39;27.88
8573;BME280;4324;42.012;24.872;2023-07-28T09:30:46;98805.94;;;28.17;28.03
8573;BME280;4324;42.012;24.872;2023-07-28T09:33:13;98746.41;;;27.77;28.17
8573;BME280;4324;42.012;24.872;2023-07-28T09:35:50;98763.16;;;27.94;28.26
8573;BME280;4324;42.012;24.872;2023-07-28T09:38:18;98806.63;;;28.33;28.10
8573;BME280;4324;42.012;24.872;2023-07-28T09:40:46;98805.72;;;28.43;28.00
8573;BME280;4324;42.012;24.872;2023-07-28T09:43:13;98779.88;;;28.40;27.82
8573;BME280;4324;42.012;24.872;2023-07-28T09:45:42;98766.16;;;28.51;27.74
8573;BME280;4324;42.012;24.872;2023-07-28T09:48:10;98814.94;;;28.95;27.54
8573;BME280;4324;42.012;24.872;2023-07-28T09:50:40;98804.91;;;29.14;27.41
8573;BME280;4324;42.012;24.872;2023-07-28T09:53:09;98744.44;;;28.88;27.36
8573;BME280;4324;42.012;24.872;2023-07-28T09:55:39;98754.13;;;29.00;27.16
8573;BME280;4324;42.012;24.872;2023-07-28T09:58:09;98774.06;;;29.19;27.14
8573;BME280;4324;42.012;24.872;2023-07-28T10:00:37;98775.59;;;29.25;26.96
8573;BME280;4324;42.012;24.872;2023-07-28T10:03:05;98747.81;;;29.04;26.74
8573;BME280;4324;42.012;24.872;2023-07-28T10:05:33;98717.56;;;28.82;26.82
8573;BME280;4324;42.012;24.872;2023-07-28T10:08:02;98712.94;;;28.82;26.96
8573;BME280;4324;42.012;24.872;2023-07-28T10:10:32;98802.22;;;29.52;26.71
8573;BME280;4324;42.012;24.872;2023-07-28T10:12:59;98789.88;;;29.60;26.56
8573;BME280;4324;42.012;24.872;2023-07-28T10:15:31;98686.63;;;29.29;26.51
8573;BME280;4324;42.012;24.872;2023-07-28T10:17:59;98744.69;;;29.86;26.03
8573;BME280;4324;42.012;24.872;2023-07-28T10:20:30;98733.38;;;30.07;26.10
8573;BME280;4324;42.012;24.872;2023-07-28T10:23:05;98780.50;;;30.59;25.64
8573;BME280;4324;42.012;24.872;2023-07-28T10:25:36;98692.75;;;30.05;25.31
8573;BME280;4324;42.012;24.872;2023-07-28T10:28:04;98723.91;;;30.04;25.38
8573;BME280;4324;42.012;24.872;2023-07-28T10:30:52;98690.75;;;29.64;25.63
8573;BME280;4324;42.012;24.872;2023-07-28T10:33:30;98705.94;;;29.71;25.79
8573;BME280;4324;42.012;24.872;2023-07-28T10:35:58;98721.50;;;29.84;25.84
8573;BME280;4324;42.012;24.872;2023-07-28T10:38:32;98697.84;;;29.79;25.52
8573;BME280;4324;42.012;24.872;2023-07-28T10:41:09;98735.25;;;30.11;25.43
8573;BME280;4324;42.012;24.872;2023-07-28T10:43:37;98681.69;;;29.83;25.48
8573;BME280;4324;42.012;24.872;2023-07-28T10:46:05;98665.09;;;29.79;25.54
8573;BME280;4324;42.012;24.872;2023-07-28T10:48:34;98724.25;;;30.30;25.31
8573;BME280;4324;42.012;24.872;2023-07-28T10:51:02;98744.59;;;30.66;25.22
8573;BME280;4324;42.012;24.872;2023-07-28T10:53:31;98700.66;;;30.62;24.88
8573;BME280;4324;42.012;24.872;2023-07-28T10:55:58;98735.16;;;30.99;25.01
8573;BME280;4324;42.012;24.872;2023-07-28T10:58:27;98661.06;;;30.73;24.67
8573;BME280;4324;42.012;24.872;2023-07-28T11:00:54;98719.19;;;31.29;24.59
8573;BME280;4324;42.012;24.872;2023-07-28T11:03:22;98701.25;;;31.37;24.51
8573;BME280;4324;42.012;24.872;2023-07-28T11:05:49;98654.97;;;31.26;24.04
8573;BME280;4324;42.012;24.872;2023-07-28T11:08:17;98663.78;;;31.37;23.59
8573;BME280;4324;42.012;24.872;2023-07-28T11:10:44;98677.97;;;31.25;23.65
8573;BME280;4324;42.012;24.872;2023-07-28T11:13:12;98680.25;;;31.09;23.65
8573;BME280;4324;42.012;24.872;2023-07-28T11:15:41;98671.97;;;31.01;23.34
8573;BME280;4324;42.012;24.872;2023-07-28T11:18:08;98676.19;;;31.07;23.44
8573;BME280;4324;42.012;24.872;2023-07-28T11:20:36;98681.88;;;31.10;23.25
8573;BME280;4324;42.012;24.872;2023-07-28T11:23:04;98671.66;;;31.02;23.23
8573;BME280;4324;42.012;24.872;2023-07-28T11:25:32;98636.88;;;30.94;23.02
8573;BME280;4324;42.012;24.872;2023-07-28T11:28:01;98714.25;;;31.53;22.65
8573;BME280;4324;42.012;24.872;2023-07-28T11:30:29;98682.19;;;31.45;22.19
8573;BME280;4324;42.012;24.872;2023-07-28T11:32:57;98672.28;;;31.36;22.53
8573;BME280;4324;42.012;24.872;2023-07-28T11:35:24;98680.19;;;31.37;22.18
8573;BME280;4324;42.012;24.872;2023-07-28T11:37:52;98628.66;;;30.94;22.11
8573;BME280;4324;42.012;24.872;2023-07-28T11:40:21;98668.94;;;31.02;22.04
8573;BME280;4324;42.012;24.872;2023-07-28T11:42:50;98690.56;;;31.13;22.13
8573;BME280;4324;42.012;24.872;2023-07-28T11:45:19;98663.66;;;31.06;22.22
8573;BME280;4324;42.012;24.872;2023-07-28T11:47:59;98638.81;;;31.16;22.01
8573;BME280;4324;42.012;24.872;2023-07-28T11:50:29;98671.22;;;31.45;21.29
8573;BME280;4324;42.012;24.872;2023-07-28T11:52:57;98674.22;;;31.35;21.08
8573;BME280;4324;42.012;24.872;2023-07-28T11:55:24;98668.75;;;31.21;20.81
8573;BME280;4324;42.012;24.872;2023-07-28T11:57:52;98692.94;;;31.28;20.36
8573;BME280;4324;42.012;24.872;2023-07-28T12:00:22;98617.28;;;30.78;20.22
8573;BME280;4324;42.012;24.872;2023-07-28T12:03:02;98677.72;;;31.13;20.03
8573;BME280;4324;42.012;24.872;2023-07-28T12:05:30;98645.25;;;30.98;20.50
8573;BME280;4324;42.012;24.872;2023-07-28T12:07:57;98674.53;;;31.33;20.20
8573;BME280;4324;42.012;24.872;2023-07-28T12:10:24;98617.53;;;31.13;20.18
8573;BME280;4324;42.012;24.872;2023-07-28T12:12:51;98609.84;;;31.15;20.38
8573;BME280;4324;42.012;24.872;2023-07-28T12:15:21;98581.88;;;30.96;20.03
8573;BME280;4324;42.012;24.872;2023-07-28T12:18:17;98627.72;;;31.35;20.05
8573;BME280;4324;42.012;24.872;2023-07-28T12:20:46;98581.25;;;31.21;20.12
8573;BME280;4324;42.012;24.872;2023-07-28T12:23:15;98638.56;;;31.80;20.33
8573;BME280;4324;42.012;24.872;2023-07-28T12:25:42;98619.09;;;31.81;20.36
8573;BME280;4324;42.012;24.872;2023-07-28T12:28:10;98624.16;;;31.88;20.19
8573;BME280;4324;42.012;24.872;2023-07-28T12:30:40;98581.59;;;31.51;19.79
8573;BME280;4324;42.012;24.872;2023-07-28T12:33:08;98657.19;;;31.92;19.85
8573;BME280;4324;42.012;24.872;2023-07-28T12:35:36;98617.13;;;31.73;19.94
8573;BME280;4324;42.012;24.872;2023-07-28T12:38:10;98580.47;;;31.52;20.17
8573;BME280;4324;42.012;24.872;2023-07-28T12:40:54;98565.19;;;31.51;20.19
8573;BME280;4324;42.012;24.872;2023-07-28T12:43:21;98560.69;;;31.55;20.17
8573;BME280;4324;42.012;24.872;2023-07-28T12:45:49;98644.03;;;32.02;19.92
8573;BME280;4324;42.012;24.872;2023-07-28T12:48:17;98588.31;;;31.67;19.67
8573;BME280;4324;42.012;24.872;2023-07-28T12:50:46;98625.00;;;31.97;19.90
8573;BME280;4324;42.012;24.872;2023-07-28T12:53:13;98550.09;;;31.62;19.80
8573;BME280;4324;42.012;24.872;2023-07-28T12:55:40;98546.13;;;31.77;20.02
8573;BME280;4324;42.012;24.872;2023-07-28T12:58:07;98551.69;;;31.94;19.81
8573;BME280;4324;42.012;24.872;2023-07-28T13:00:34;98555.91;;;32.00;19.53
8573;BME280;4324;42.012;24.872;2023-07-28T13:03:01;98562.69;;;32.03;19.73
8573;BME280;4324;42.012;24.872;2023-07-28T13:05:28;98572.53;;;32.04;19.60
8573;BME280;4324;42.012;24.872;2023-07-28T13:07:57;98611.41;;;32.32;19.56
8573;BME280;4324;42.012;24.872;2023-07-28T13:10:26;98603.34;;;32.27;19.93
8573;BME280;4324;42.012;24.872;2023-07-28T13:12:53;98567.22;;;32.08;19.97
8573;BME280;4324;42.012;24.872;2023-07-28T13:15:20;98601.25;;;32.33;19.96
8573;BME280;4324;42.012;24.872;2023-07-28T13:17:47;98591.09;;;32.24;19.93